sensor_id;sensor_type;location;lat;lon;timestamp;pressure;altitude;pressure_sealevel;temperature;humidity
70127;BME280;57491;42.694;23.314;2023-06-24T00:00:44;95142.06;;;23.06;63.44
70127;BME280;57491;42.694;23.314;2023-06-24T00:03:11;95130.22;;;23.14;63.14
70127;BME280;57491;42.694;23.314;2023-06-24T00:05:43;95138.41;;;23.12;62.80
70127;BME280;57491;42.694;23.314;2023-06-24T00:08:15;95136.03;;;23.16;62.70
70127;BME280;57491;42.694;23.314;2023-06-24T00:10:45;95141.91;;;23.18;62.64
70127;BME280;57491;42.694;23.314;2023-06-24T00:13:12;95131.34;;;23.23;62.38
70127;BME280;57491;42.694;23.314;2023-06-24T00:15:41;95133.91;;;23.13;62.61
70127;BME280;57491;42.694;23.314;2023-06-24T00:18:09;95134.47;;;23.20;62.57
70127;BME280;57491;42.694;23.314;2023-06-24T00:20:36;95140.06;;;23.19;62.42
70127;BME280;57491;42.694;23.314;2023-06-24T00:23:03;95136.44;;;22.98;62.76
70127;BME280;57491;42.694;23.314;2023-06-24T00:25:30;95133.28;;;22.96;63.22
70127;BME280;57491;42.694;23.314;2023-06-24T00:27:57;95135.88;;;22.91;63.07
70127;BME280;57491;42.694;23.314;2023-06-24T00:30:25;95134.84;;;22.92;63.14
70127;BME280;57491;42.694;23.314;2023-06-24T00:32:54;95138.56;;;22.96;62.90
70127;BME280;57491;42.694;23.314;2023-06-24T00:35:21;95139.16;;;23.03;62.49
70127;BME280;57491;42.694;23.314;2023-06-24T00:37:48;95135.97;;;23.06;62.59
70127;BME280;57491;42.694;23.314;2023-06-24T00:40:16;95144.19;;;23.04;62.68
70127;BME280;57491;42.694;23.314;2023-06-24T00:42:44;95135.38;;;22.94;63.00
70127;BME280;57491;42.694;23.314;2023-06-24T00:45:12;95144.84;;;22.85;63.27
70127;BME280;57491;42.694;23.314;2023-06-24T00:47:39;95135.22;;;22.79;63.53
70127;BME280;57491;42.694;23.314;2023-06-24T00:50:09;95140.53;;;22.74;63.74
70127;BME280;57491;42.694;23.314;2023-06-24T00:52:38;95129.34;;;22.72;63.71
70127;BME280;57491;42.694;23.314;2023-06-24T00:55:08;95129.13;;;22.73;63.92
70127;BME280;57491;42.694;23.314;2023-06-24T00:57:37;95125.66;;;22.73;63.84
70127;BME280;57491;42.694;23.314;2023-06-24T01:00:06;95118.19;;;22.69;63.87
70127;BME280;57491;42.694;23.314;2023-06-24T01:02:39;95122.38;;;22.65;64.22
70127;BME280;57491;42.694;23.314;2023-06-24T01:05:09;95120.81;;;22.64;64.10
70127;BME280;57491;42.694;23.314;2023-06-24T01:07:38;95123.44;;;22.64;64.11
70127;BME280;57491;42.694;23.314;2023-06-24T01:10:06;95118.59;;;22.56;64.26
70127;BME280;57491;42.694;23.314;2023-06-24T01:12:35;95115.59;;;22.48;64.79
70127;BME280;57491;42.694;23.314;2023-06-24T01:15:03;95125.41;;;22.47;64.74
70127;BME280;57491;42.694;23.314;2023-06-24T01:17:35;95118.19;;;22.43;65.13
70127;BME280;57491;42.694;23.314;2023-06-24T01:20:07;95116.53;;;22.32;65.43
70127;BME280;57491;42.694;23.314;2023-06-24T01:22:52;95111.88;;;22.17;65.91
70127;BME280;57491;42.694;23.314;2023-06-24T01:25:40;95107.31;;;22.12;65.99
70127;BME280;57491;42.694;23.314;2023-06-24T01:28:27;95113.19;;;22.14;66.25
70127;BME280;57491;42.694;23.314;2023-06-24T01:31:22;95118.78;;;22.18;66.29
70127;BME280;57491;42.694;23.314;2023-06-24T01:33:56;95115.66;;;22.26;66.10
70127;BME280;57491;42.694;23.314;2023-06-24T01:36:26;95122.63;;;22.32;66.07
70127;BME280;57491;42.694;23.314;2023-06-24T01:39:00;95116.31;;;22.38;65.77
70127;BME280;57491;42.694;23.314;2023-06-24T01:41:34;95136.56;;;22.49;66.46
70127;BME280;57491;42.694;23.314;2023-06-24T01:44:03;95136.78;;;22.48;67.65
70127;BME280;57491;42.694;23.314;2023-06-24T01:46:33;95147.66;;;22.46;68.48
70127;BME280;57491;42.694;23.314;2023-06-24T01:49:02;95159.00;;;22.42;69.15
70127;BME280;57491;42.694;23.314;2023-06-24T01:51:32;95151.50;;;22.34;69.40
70127;BME280;57491;42.694;23.314;2023-06-24T01:54:03;95150.66;;;22.28;69.58
70127;BME280;57491;42.694;23.314;2023-06-24T01:56:33;95155.41;;;22.26;69.74
70127;BME280;57491;42.694;23.314;2023-06-24T01:59:02;95162.59;;;22.31;69.80
70127;BME280;57491;42.694;23.314;2023-06-24T02:01:33;95153.78;;;22.25;70.05
70127;BME280;57491;42.694;23.314;2023-06-24T02:04:03;95158.28;;;22.24;70.15
70127;BME280;57491;42.694;23.314;2023-06-24T02:06:31;95165.69;;;22.22;70.23
70127;BME280;57491;42.694;23.314;2023-06-24T02:09:00;95164.09;;;22.21;70.42
70127;BME280;57491;42.694;23.314;2023-06-24T02:11:30;95178.19;;;22.27;70.44
70127;BME280;57491;42.694;23.314;2023-06-24T02:13:59;95172.09;;;22.27;70.45
70127;BME280;57491;42.694;23.314;2023-06-24T02:16:29;95167.59;;;22.27;70.45
70127;BME280;57491;42.694;23.314;2023-06-24T02:18:58;95164.09;;;22.21;70.33
70127;BME280;57491;42.694;23.314;2023-06-24T02:21:28;95175.47;;;22.22;70.45
70127;BME280;57491;42.694;23.314;2023-06-24T02:23:57;95148.00;;;22.01;70.59
70127;BME280;57491;42.694;23.314;2023-06-24T02:26:25;95178.59;;;22.14;70.82
70127;BME280;57491;42.694;23.314;2023-06-24T02:28:53;95188.38;;;22.13;70.69
70127;BME280;57491;42.694;23.314;2023-06-24T02:31:21;95184.75;;;22.19;70.47
70127;BME280;57491;42.694;23.314;2023-06-24T02:33:48;95198.22;;;22.18;70.31
70127;BME280;57491;42.694;23.314;2023-06-24T02:36:17;95199.47;;;22.10;70.55
70127;BME280;57491;42.694;23.314;2023-06-24T02:38:44;95215.81;;;22.07;70.89
70127;BME280;57491;42.694;23.314;2023-06-24T02:41:11;95212.00;;;21.98;71.21
70127;BME280;57491;42.694;23.314;2023-06-24T02:43:39;95215.16;;;21.95;71.38
70127;BME280;57491;42.694;23.314;2023-06-24T02:46:07;95213.84;;;21.98;71.40
70127;BME280;57491;42.694;23.314;2023-06-24T02:48:37;95218.38;;;21.97;71.68
70127;BME280;57491;42.694;23.314;2023-06-24T02:51:07;95208.53;;;21.93;71.75
70127;BME280;57491;42.694;23.314;2023-06-24T02:53:38;95211.16;;;21.93;71.97
70127;BME280;57491;42.694;23.314;2023-06-24T02:56:06;95212.34;;;21.85;71.95
70127;BME280;57491;42.694;23.314;2023-06-24T02:58:36;95222.38;;;21.83;72.29
70127;BME280;57491;42.694;23.314;2023-06-24T03:01:04;95228.41;;;21.78;72.25
70127;BME280;57491;42.694;23.314;2023-06-24T03:03:33;95231.59;;;21.80;72.15
70127;BME280;57491;42.694;23.314;2023-06-24T03:06:01;95228.41;;;21.78;72.28
70127;BME280;57491;42.694;23.314;2023-06-24T03:08:29;95222.31;;;21.78;72.62
70127;BME280;57491;42.694;23.314;2023-06-24T03:10:58;95218.63;;;21.79;72.22
70127;BME280;57491;42.694;23.314;2023-06-24T03:13:26;95223.44;;;21.82;72.22
70127;BME280;57491;42.694;23.314;2023-06-24T03:15:53;95199.97;;;21.69;72.25
70127;BME280;57491;42.694;23.314;2023-06-24T03:18:20;95215.25;;;21.84;72.51
70127;BME280;57491;42.694;23.314;2023-06-24T03:20:47;95231.13;;;21.84;72.28
70127;BME280;57491;42.694;23.314;2023-06-24T03:23:14;95226.22;;;21.92;71.73
70127;BME280;57491;42.694;23.314;2023-06-24T03:25:41;95223.47;;;22.04;71.43
70127;BME280;57491;42.694;23.314;2023-06-24T03:28:10;95239.47;;;22.14;71.54
70127;BME280;57491;42.694;23.314;2023-06-24T03:30:37;95227.88;;;22.20;70.85
70127;BME280;57491;42.694;23.314;2023-06-24T03:33:04;95234.06;;;22.25;70.56
70127;BME280;57491;42.694;23.314;2023-06-24T03:35:32;95253.47;;;22.31;70.35
70127;BME280;57491;42.694;23.314;2023-06-24T03:37:59;95256.69;;;22.33;70.14
70127;BME280;57491;42.694;23.314;2023-06-24T03:40:28;95245.56;;;22.36;70.22
70127;BME280;57491;42.694;23.314;2023-06-24T03:42:56;95248.00;;;22.43;69.75
70127;BME280;57491;42.694;23.314;2023-06-24T03:45:24;95260.28;;;22.49;69.39
70127;BME280;57491;42.694;23.314;2023-06-24T03:47:52;95259.31;;;22.55;69.15
70127;BME280;57491;42.694;23.314;2023-06-24T03:50:20;95249.81;;;22.59;68.94
70127;BME280;57491;42.694;23.314;2023-06-24T03:52:47;95260.28;;;22.71;68.37
70127;BME280;57491;42.694;23.314;2023-06-24T03:55:14;95258.72;;;22.75;67.76
70127;BME280;57491;42.694;23.314;2023-06-24T03:57:41;95264.34;;;22.78;67.72
70127;BME280;57491;42.694;23.314;2023-06-24T04:00:10;95256.94;;;22.80;67.52
70127;BME280;57491;42.694;23.314;2023-06-24T04:02:41;95261.25;;;22.86;67.66
70127;BME280;57491;42.694;23.314;2023-06-24T04:05:09;95261.59;;;22.95;67.40
70127;BME280;57491;42.694;23.314;2023-06-24T04:07:36;95254.16;;;22.97;67.54
70127;BME280;57491;42.694;23.314;2023-06-24T04:10:05;95263.53;;;23.04;67.07
70127;BME280;57491;42.694;23.314;2023-06-24T04:12:34;95252.22;;;23.14;66.65
70127;BME280;57491;42.694;23.314;2023-06-24T04:15:01;95260.25;;;23.24;66.39
70127;BME280;57491;42.694;23.314;2023-06-24T04:17:30;95254.41;;;23.22;65.99
70127;BME280;57491;42.694;23.314;2023-06-24T04:19:59;95248.06;;;23.28;65.98
70127;BME280;57491;42.694;23.314;2023-06-24T04:22:29;95250.69;;;23.23;65.84
70127;BME280;57491;42.694;23.314;2023-06-24T04:24:56;95245.22;;;23.35;65.83
70127;BME280;57491;42.694;23.314;2023-06-24T04:27:23;95248.38;;;23.32;65.65
70127;BME280;57491;42.694;23.314;2023-06-24T04:29:50;95241.72;;;23.29;65.81
70127;BME280;57491;42.694;23.314;2023-06-24T04:32:17;95232.50;;;23.42;65.39
70127;BME280;57491;42.694;23.314;2023-06-24T04:34:44;95238.97;;;23.51;65.36
70127;BME280;57491;42.694;23.314;2023-06-24T04:37:13;95242.78;;;23.65;64.91
70127;BME280;57491;42.694;23.314;2023-06-24T04:39:40;95242.06;;;23.75;64.32
70127;BME280;57491;42.694;23.314;2023-06-24T04:42:07;95241.78;;;23.71;64.40
70127;BME280;57491;42.694;23.314;2023-06-24T04:44:36;95243.25;;;23.94;63.79
70127;BME280;57491;42.694;23.314;2023-06-24T04:47:03;95247.31;;;24.12;63.28
70127;BME280;57491;42.694;23.314;2023-06-24T04:49:31;95255.66;;;24.30;62.95
70127;BME280;57491;42.694;23.314;2023-06-24T04:52:00;95258.34;;;24.40;62.33
70127;BME280;57491;42.694;23.314;2023-06-24T04:54:28;95257.56;;;24.50;61.95
70127;BME280;57491;42.694;23.314;2023-06-24T04:56:56;95258.97;;;24.63;61.94
70127;BME280;57491;42.694;23.314;2023-06-24T04:59:23;95257.63;;;24.65;60.90
70127;BME280;57491;42.694;23.314;2023-06-24T05:01:53;95256.59;;;24.81;60.80
70127;BME280;57491;42.694;23.314;2023-06-24T05:04:20;95251.06;;;24.88;60.11
70127;BME280;57491;42.694;23.314;2023-06-24T05:06:47;95259.06;;;24.93;60.08
70127;BME280;57491;42.694;23.314;2023-06-24T05:09:14;95251.06;;;24.98;60.11
70127;BME280;57491;42.694;23.314;2023-06-24T05:11:43;95252.41;;;25.11;59.28
70127;BME280;57491;42.694;23.314;2023-06-24T05:14:10;95250.53;;;25.26;59.28
70127;BME280;57491;42.694;23.314;2023-06-24T05:16:37;95256.41;;;25.39;58.07
70127;BME280;57491;42.694;23.314;2023-06-24T05:19:04;95248.41;;;25.49;57.95
70127;BME280;57491;42.694;23.314;2023-06-24T05:21:31;95245.78;;;25.64;57.82
70127;BME280;57491;42.694;23.314;2023-06-24T05:23:58;95238.03;;;25.77;57.62
70127;BME280;57491;42.694;23.314;2023-06-24T05:26:25;95236.41;;;25.87;57.09
70127;BME280;57491;42.694;23.314;2023-06-24T05:28:54;95248.09;;;25.96;56.73
70127;BME280;57491;42.694;23.314;2023-06-24T05:31:21;95237.94;;;26.08;56.61
70127;BME280;57491;42.694;23.314;2023-06-24T05:33:48;95238.47;;;26.10;56.41
70127;BME280;57491;42.694;23.314;2023-06-24T05:36:15;95253.66;;;26.14;56.18
70127;BME280;57491;42.694;23.314;2023-06-24T05:38:42;95242.44;;;26.28;55.62
70127;BME280;57491;42.694;23.314;2023-06-24T05:41:09;95242.66;;;26.41;54.85
70127;BME280;57491;42.694;23.314;2023-06-24T05:43:36;95249.78;;;26.56;55.65
70127;BME280;57491;42.694;23.314;2023-06-24T05:46:05;95244.91;;;26.68;54.57
70127;BME280;57491;42.694;23.314;2023-06-24T05:48:32;95241.13;;;26.79;53.99
70127;BME280;57491;42.694;23.314;2023-06-24T05:51:00;95233.06;;;26.84;54.23
70127;BME280;57491;42.694;23.314;2023-06-24T05:53:27;95235.72;;;26.94;53.76
70127;BME280;57491;42.694;23.314;2023-06-24T05:55:54;95229.81;;;26.97;53.33
70127;BME280;57491;42.694;23.314;2023-06-24T05:58:24;95233.22;;;27.08;52.93
70127;BME280;57491;42.694;23.314;2023-06-24T06:00:51;95231.75;;;27.26;52.78
70127;BME280;57491;42.694;23.314;2023-06-24T06:03:19;95229.03;;;27.31;52.13
70127;BME280;57491;42.694;23.314;2023-06-24T06:05:46;95228.16;;;27.40;51.52
70127;BME280;57491;42.694;23.314;2023-06-24T06:08:13;95221.63;;;27.57;50.83
70127;BME280;57491;42.694;23.314;2023-06-24T06:10:41;95220.59;;;27.52;51.04
70127;BME280;57491;42.694;23.314;2023-06-24T06:13:08;95218.22;;;27.51;50.93
70127;BME280;57491;42.694;23.314;2023-06-24T06:15:35;95220.72;;;27.66;50.81
70127;BME280;57491;42.694;23.314;2023-06-24T06:18:02;95225.53;;;27.69;50.85
70127;BME280;57491;42.694;23.314;2023-06-24T06:20:31;95225.63;;;27.83;50.12
70127;BME280;57491;42.694;23.314;2023-06-24T06:22:58;95225.19;;;28.00;49.40
70127;BME280;57491;42.694;23.314;2023-06-24T06:25:25;95226.16;;;28.14;49.00
70127;BME280;57491;42.694;23.314;2023-06-24T06:27:52;95218.28;;;28.22;48.93
70127;BME280;57491;42.694;23.314;2023-06-24T06:30:19;95226.53;;;28.26;48.27
70127;BME280;57491;42.694;23.314;2023-06-24T06:32:46;95229.16;;;28.31;48.35
70127;BME280;57491;42.694;23.314;2023-06-24T06:35:13;95232.03;;;28.34;47.97
70127;BME280;57491;42.694;23.314;2023-06-24T06:37:42;95235.56;;;28.30;48.09
70127;BME280;57491;42.694;23.314;2023-06-24T06:40:09;95234.97;;;28.33;47.84
70127;BME280;57491;42.694;23.314;2023-06-24T06:42:36;95230.09;;;28.40;46.63
70127;BME280;57491;42.694;23.314;2023-06-24T06:45:04;95250.72;;;28.58;47.07
70127;BME280;57491;42.694;23.314;2023-06-24T06:47:32;95242.91;;;28.62;46.30
70127;BME280;57491;42.694;23.314;2023-06-24T06:49:59;95239.84;;;28.73;46.66
70127;BME280;57491;42.694;23.314;2023-06-24T06:52:27;95242.91;;;28.86;45.85
70127;BME280;57491;42.694;23.314;2023-06-24T06:54:55;95245.34;;;29.01;45.50
70127;BME280;57491;42.694;23.314;2023-06-24T06:57:23;95234.75;;;29.28;45.25
70127;BME280;57491;42.694;23.314;2023-06-24T06:59:51;95229.53;;;29.37;45.06
70127;BME280;57491;42.694;23.314;2023-06-24T07:02:18;95237.63;;;29.50;44.91
70127;BME280;57491;42.694;23.314;2023-06-24T07:04:45;95232.63;;;29.62;44.62
70127;BME280;57491;42.694;23.314;2023-06-24T07:07:13;95233.19;;;29.59;44.21
70127;BME280;57491;42.694;23.314;2023-06-24T07:09:40;95239.53;;;29.63;43.95
70127;BME280;57491;42.694;23.314;2023-06-24T07:12:09;95233.69;;;29.61;44.14
70127;BME280;57491;42.694;23.314;2023-06-24T07:14:37;95242.91;;;29.88;44.00
70127;BME280;57491;42.694;23.314;2023-06-24T07:17:04;95243.28;;;29.95;43.01
70127;BME280;57491;42.694;23.314;2023-06-24T07:19:31;95243.31;;;30.08;43.16
70127;BME280;57491;42.694;23.314;2023-06-24T07:21:58;95241.53;;;30.18;43.10
70127;BME280;57491;42.694;23.314;2023-06-24T07:24:26;95243.13;;;30.32;42.28
70127;BME280;57491;42.694;23.314;2023-06-24T07:26:53;95241.97;;;30.52;42.25
70127;BME280;57491;42.694;23.314;2023-06-24T07:29:21;95234.38;;;30.68;42.61
70127;BME280;57491;42.694;23.314;2023-06-24T07:31:48;95231.59;;;30.59;41.88
70127;BME280;57491;42.694;23.314;2023-06-24T07:34:15;95241.31;;;30.69;41.92
70127;BME280;57491;42.694;23.314;2023-06-24T07:36:42;95235.38;;;30.58;42.87
70127;BME280;57491;42.694;23.314;2023-06-24T07:39:09;95236.53;;;30.79;42.79
70127;BME280;57491;42.694;23.314;2023-06-24T07:41:37;95230.81;;;30.94;41.61
70127;BME280;57491;42.694;23.314;2023-06-24T07:44:04;95231.97;;;31.16;41.46
70127;BME280;57491;42.694;23.314;2023-06-24T07:46:33;95219.69;;;31.45;40.82
70127;BME280;57491;42.694;23.314;2023-06-24T07:49:01;95228.19;;;31.61;41.96
70127;BME280;57491;42.694;23.314;2023-06-24T07:51:28;95225.13;;;31.32;41.07
70127;BME280;57491;42.694;23.314;2023-06-24T07:53:55;95227.03;;;31.31;40.90
70127;BME280;57491;42.694;23.314;2023-06-24T07:56:22;95230.44;;;31.23;41.28
70127;BME280;57491;42.694;23.314;2023-06-24T07:58:49;95229.22;;;31.52;40.98
70127;BME280;57491;42.694;23.314;2023-06-24T08:01:16;95234.47;;;31.79;40.48
70127;BME280;57491;42.694;23.314;2023-06-24T08:03:45;95239.84;;;31.79;40.32
70127;BME280;57491;42.694;23.314;2023-06-24T08:06:12;95227.97;;;31.80;40.01
70127;BME280;57491;42.694;23.314;2023-06-24T08:08:39;95236.19;;;32.06;39.49
70127;BME280;57491;42.694;23.314;2023-06-24T08:11:06;95229.16;;;32.27;39.25
70127;BME280;57491;42.694;23.314;2023-06-24T08:13:33;95230.44;;;32.38;38.98
70127;BME280;57491;42.694;23.314;2023-06-24T08:16:01;95220.28;;;32.18;38.93
70127;BME280;57491;42.694;23.314;2023-06-24T08:18:28;95233.47;;;32.37;39.48
70127;BME280;57491;42.694;23.314;2023-06-24T08:20:56;95226.06;;;32.51;38.77
70127;BME280;57491;42.694;23.314;2023-06-24T08:23:23;95227.13;;;32.33;38.57
70127;BME280;57491;42.694;23.314;2023-06-24T08:25:51;95222.25;;;32.43;38.67
70127;BME280;57491;42.694;23.314;2023-06-24T08:28:17;95221.31;;;32.48;38.48
70127;BME280;57491;42.694;23.314;2023-06-24T08:30:44;95221.16;;;32.61;38.65
70127;BME280;57491;42.694;23.314;2023-06-24T08:33:11;95219.47;;;32.65;38.65
70127;BME280;57491;42.694;23.314;2023-06-24T08:35:40;95220.47;;;32.87;38.52
70127;BME280;57491;42.694;23.314;2023-06-24T08:38:08;95220.63;;;32.90;38.07
70127;BME280;57491;42.694;23.314;2023-06-24T08:40:35;95208.59;;;33.05;37.97
70127;BME280;57491;42.694;23.314;2023-06-24T08:43:05;95207.94;;;33.25;37.32
70127;BME280;57491;42.694;23.314;2023-06-24T08:45:32;95204.91;;;33.44;37.09
70127;BME280;57491;42.694;23.314;2023-06-24T08:47:59;95205.22;;;33.68;36.73
70127;BME280;57491;42.694;23.314;2023-06-24T08:50:34;95201.91;;;33.45;37.35
70127;BME280;57491;42.694;23.314;2023-06-24T08:53:03;95194.97;;;33.27;37.67
70127;BME280;57491;42.694;23.314;2023-06-24T08:55:36;95193.03;;;33.10;37.67
70127;BME280;57491;42.694;23.314;2023-06-24T08:58:07;95197.31;;;33.11;38.35
70127;BME280;57491;42.694;23.314;2023-06-24T09:00:34;95198.41;;;33.53;36.62
70127;BME280;57491;42.694;23.314;2023-06-24T09:03:04;95203.22;;;33.94;35.47
70127;BME280;57491;42.694;23.314;2023-06-24T09:05:31;95197.25;;;34.27;35.67
70127;BME280;57491;42.694;23.314;2023-06-24T09:08:01;95196.66;;;34.13;35.34
70127;BME280;57491;42.694;23.314;2023-06-24T09:10:33;95194.59;;;33.54;36.76
70127;BME280;57491;42.694;23.314;2023-06-24T09:13:01;95183.66;;;33.51;36.82
70127;BME280;57491;42.694;23.314;2023-06-24T09:15:31;95190.34;;;33.45;37.27
70127;BME280;57491;42.694;23.314;2023-06-24T09:17:59;95193.44;;;33.81;36.92
70127;BME280;57491;42.694;23.314;2023-06-24T09:20:26;95192.78;;;33.84;36.15
70127;BME280;57491;42.694;23.314;2023-06-24T09:22:58;95187.97;;;33.98;35.17
70127;BME280;57491;42.694;23.314;2023-06-24T09:25:26;95196.69;;;34.04;36.18
70127;BME280;57491;42.694;23.314;2023-06-24T09:27:58;95206.34;;;34.05;35.31
70127;BME280;57491;42.694;23.314;2023-06-24T09:30:25;95190.25;;;34.26;35.34
70127;BME280;57491;42.694;23.314;2023-06-24T09:32:53;95194.03;;;34.54;34.48
70127;BME280;57491;42.694;23.314;2023-06-24T09:35:22;95197.31;;;34.68;34.79
70127;BME280;57491;42.694;23.314;2023-06-24T09:37:50;95198.19;;;34.31;34.76
70127;BME280;57491;42.694;23.314;2023-06-24T09:40:17;95192.78;;;34.31;34.61
70127;BME280;57491;42.694;23.314;2023-06-24T09:42:51;95202.13;;;34.63;33.87
70127;BME280;57491;42.694;23.314;2023-06-24T09:45:24;95201.91;;;34.76;33.37
70127;BME280;57491;42.694;23.314;2023-06-24T09:47:52;95201.47;;;34.86;32.74
70127;BME280;57491;42.694;23.314;2023-06-24T09:50:20;95197.53;;;34.84;33.37
70127;BME280;57491;42.694;23.314;2023-06-24T09:52:48;95197.28;;;34.98;33.14
70127;BME280;57491;42.694;23.314;2023-06-24T09:55:17;95193.84;;;34.88;33.13
70127;BME280;57491;42.694;23.314;2023-06-24T09:57:49;95182.66;;;35.19;31.93
70127;BME280;57491;42.694;23.314;2023-06-24T10:00:19;95174.97;;;35.54;32.11
70127;BME280;57491;42.694;23.314;2023-06-24T10:02:48;95178.47;;;35.43;31.96
70127;BME280;57491;42.694;23.314;2023-06-24T10:05:16;95171.00;;;35.85;31.20
70127;BME280;57491;42.694;23.314;2023-06-24T10:07:43;95169.91;;;35.98;30.81
70127;BME280;57491;42.694;23.314;2023-06-24T10:10:10;95158.72;;;35.75;31.31
70127;BME280;57491;42.694;23.314;2023-06-24T10:12:38;95158.06;;;35.78;31.70
70127;BME280;57491;42.694;23.314;2023-06-24T10:15:06;95158.75;;;36.11;31.74
70127;BME280;57491;42.694;23.314;2023-06-24T10:17:33;95151.41;;;36.00;31.48
70127;BME280;57491;42.694;23.314;2023-06-24T10:20:05;95146.69;;;35.97;31.30
70127;BME280;57491;42.694;23.314;2023-06-24T10:22:33;95145.34;;;36.15;30.86
70127;BME280;57491;42.694;23.314;2023-06-24T10:25:05;95133.59;;;36.11;31.12
70127;BME280;57491;42.694;23.314;2023-06-24T10:27:38;95122.31;;;35.97;31.61
70127;BME280;57491;42.694;23.314;2023-06-24T10:30:06;95122.50;;;36.52;29.96
70127;BME280;57491;42.694;23.314;2023-06-24T10:32:42;95133.06;;;36.82;29.54
70127;BME280;57491;42.694;23.314;2023-06-24T10:35:23;95122.44;;;36.61;29.24
70127;BME280;57491;42.694;23.314;2023-06-24T10:37:55;95112.34;;;36.61;29.89
70127;BME280;57491;42.694;23.314;2023-06-24T10:40:36;95111.50;;;36.85;29.11
70127;BME280;57491;42.694;23.314;2023-06-24T10:43:25;95101.09;;;36.47;29.94
70127;BME280;57491;42.694;23.314;2023-06-24T10:45:53;95104.13;;;36.46;29.27
70127;BME280;57491;42.694;23.314;2023-06-24T10:48:21;95096.41;;;37.00;29.40
70127;BME280;57491;42.694;23.314;2023-06-24T10:50:49;95087.50;;;37.43;28.57
70127;BME280;57491;42.694;23.314;2023-06-24T10:53:17;95086.94;;;37.81;28.04
70127;BME280;57491;42.694;23.314;2023-06-24T10:55:45;95085.34;;;37.80;26.93
70127;BME280;57491;42.694;23.314;2023-06-24T10:58:14;95084.06;;;37.58;27.57
70127;BME280;57491;42.694;23.314;2023-06-24T11:00:42;95083.19;;;37.54;26.70
70127;BME280;57491;42.694;23.314;2023-06-24T11:03:13;95079.16;;;37.64;26.83
70127;BME280;57491;42.694;23.314;2023-06-24T11:05:41;95075.38;;;37.84;26.28
70127;BME280;57491;42.694;23.314;2023-06-24T11:08:09;95080.22;;;37.59;26.25
70127;BME280;57491;42.694;23.314;2023-06-24T11:10:43;95077.59;;;36.63;27.18
70127;BME280;57491;42.694;23.314;2023-06-24T11:13:11;95082.16;;;36.35;26.91
70127;BME280;57491;42.694;23.314;2023-06-24T11:15:39;95076.97;;;36.82;26.28
70127;BME280;57491;42.694;23.314;2023-06-24T11:18:08;95085.44;;;37.52;26.12
70127;BME280;57491;42.694;23.314;2023-06-24T11:20:36;95081.16;;;37.82;25.72
70127;BME280;57491;42.694;23.314;2023-06-24T11:23:06;95081.88;;;37.64;25.07
70127;BME280;57491;42.694;23.314;2023-06-24T11:25:39;95082.72;;;37.83;24.52
70127;BME280;57491;42.694;23.314;2023-06-24T11:28:15;95081.69;;;38.04;24.09
70127;BME280;57491;42.694;23.314;2023-06-24T11:30:42;95066.72;;;38.10;24.00
70127;BME280;57491;42.694;23.314;2023-06-24T11:33:09;95076.94;;;37.85;24.69
70127;BME280;57491;42.694;23.314;2023-06-24T11:35:37;95075.75;;;37.82;25.41
70127;BME280;57491;42.694;23.314;2023-06-24T11:38:04;95083.97;;;37.86;25.16
70127;BME280;57491;42.694;23.314;2023-06-24T11:40:31;95069.56;;;37.38;25.66
70127;BME280;57491;42.694;23.314;2023-06-24T11:43:01;95066.56;;;37.12;25.99
70127;BME280;57491;42.694;23.314;2023-06-24T11:45:29;95062.56;;;36.94;25.94
70127;BME280;57491;42.694;23.314;2023-06-24T11:48:02;95064.16;;;36.67;26.81
70127;BME280;57491;42.694;23.314;2023-06-24T11:50:31;95057.03;;;36.10;27.09
70127;BME280;57491;42.694;23.314;2023-06-24T11:52:58;95051.19;;;35.72;27.63
70127;BME280;57491;42.694;23.314;2023-06-24T11:55:26;95045.84;;;35.63;27.13
70127;BME280;57491;42.694;23.314;2023-06-24T11:57:55;95046.28;;;35.53;27.64
70127;BME280;57491;42.694;23.314;2023-06-24T12:00:26;95036.50;;;35.49;27.65
70127;BME280;57491;42.694;23.314;2023-06-24T12:02:54;95030.28;;;35.36;27.60
70127;BME280;57491;42.694;23.314;2023-06-24T12:05:27;95021.41;;;34.90;29.18
70127;BME280;57491;42.694;23.314;2023-06-24T12:07:56;95011.38;;;34.58;29.46
70127;BME280;57491;42.694;23.314;2023-06-24T12:10:23;95007.19;;;34.48;29.69
70127;BME280;57491;42.694;23.314;2023-06-24T12:12:51;95006.81;;;34.50;29.74
70127;BME280;57491;42.694;23.314;2023-06-24T12:15:21;95006.81;;;34.50;29.79
70127;BME280;57491;42.694;23.314;2023-06-24T12:17:49;95007.97;;;34.08;30.30
70127;BME280;57491;42.694;23.314;2023-06-24T12:20:16;95016.25;;;33.73;31.77
70127;BME280;57491;42.694;23.314;2023-06-24T12:22:44;95013.72;;;33.39;32.45
70127;BME280;57491;42.694;23.314;2023-06-24T12:25:15;95016.38;;;33.47;31.80
70127;BME280;57491;42.694;23.314;2023-06-24T12:27:43;95016.63;;;33.25;32.72
70127;BME280;57491;42.694;23.314;2023-06-24T12:30:11;95007.94;;;33.11;32.03
70127;BME280;57491;42.694;23.314;2023-06-24T12:32:39;95006.88;;;33.03;32.75
70127;BME280;57491;42.694;23.314;2023-06-24T12:35:08;94999.41;;;33.09;32.99
70127;BME280;57491;42.694;23.314;2023-06-24T12:37:36;95001.94;;;33.05;32.73
70127;BME280;57491;42.694;23.314;2023-06-24T12:40:04;95011.44;;;33.03;32.46
70127;BME280;57491;42.694;23.314;2023-06-24T12:42:31;95018.72;;;33.11;33.18
70127;BME280;57491;42.694;23.314;2023-06-24T12:44:58;95037.34;;;32.87;33.28
70127;BME280;57491;42.694;23.314;2023-06-24T12:47:26;95050.81;;;32.78;33.54
70127;BME280;57491;42.694;23.314;2023-06-24T12:49:53;95056.81;;;32.75;33.67
70127;BME280;57491;42.694;23.314;2023-06-24T12:52:22;95061.41;;;32.74;33.81
70127;BME280;57491;42.694;23.314;2023-06-24T12:54:49;95068.38;;;32.58;34.16
70127;BME280;57491;42.694;23.314;2023-06-24T12:57:16;95076.44;;;32.33;35.02